createdAt,value
2023-04-15T00:02:18.615Z,40.42
2023-04-15T00:04:49.063Z,40.88
2023-04-15T00:07:17.194Z,40.17
2023-04-15T00:09:44.985Z,39.38
2023-04-15T00:12:12.181Z,34.53
2023-04-15T00:14:38.838Z,36.05
2023-04-15T00:17:05.499Z,39.47
2023-04-15T00:19:32.604Z,35.40
2023-04-15T00:22:00.276Z,41.85
2023-04-15T00:24:26.938Z,41.70
2023-04-15T00:26:53.923Z,37.20
2023-04-15T00:29:21.248Z,38.13
2023-04-15T00:31:48.128Z,43.20
2023-04-15T00:34:14.979Z,41.67
2023-04-15T00:36:41.786Z,46.28
2023-04-15T00:39:08.768Z,44.10
2023-04-15T00:41:35.350Z,42.55
2023-04-15T00:44:02.475Z,42.20
2023-04-15T00:46:33.133Z,43.10
2023-04-15T00:49:00.832Z,44.10
2023-04-15T00:51:27.508Z,47.13
2023-04-15T00:53:54.518Z,42.08
2023-04-15T00:56:24.661Z,47.22
2023-04-15T00:58:52.402Z,46.60
2023-04-15T01:01:22.469Z,46.40
2023-04-15T01:03:53.262Z,47.15
2023-04-15T01:06:19.990Z,51.97
2023-04-15T01:08:46.866Z,46.83
2023-04-15T01:11:14.043Z,52.03
2023-04-15T01:13:40.906Z,52.92
2023-04-15T01:16:08.801Z,50.45
2023-04-15T01:18:38.982Z,62.10
2023-04-15T01:21:07.447Z,50.78
2023-04-15T01:23:38.732Z,57.40
2023-04-15T01:26:08.132Z,56.58
2023-04-15T01:28:36.208Z,56.45
2023-04-15T01:31:13.956Z,53.90
2023-04-15T01:33:42.676Z,56.13
2023-04-15T01:36:10.964Z,54.00
2023-04-15T01:38:38.442Z,56.72
2023-04-15T01:41:07.666Z,60.78
2023-04-15T01:43:40.212Z,54.17
2023-04-15T01:46:07.363Z,59.42
2023-04-15T01:48:34.623Z,59.47
2023-04-15T01:51:01.521Z,66.03
2023-04-15T01:53:28.286Z,59.95
2023-04-15T01:55:54.854Z,60.83
2023-04-15T01:58:22.627Z,61.05
2023-04-15T02:00:49.488Z,61.35
2023-04-15T02:03:16.346Z,58.85
2023-04-15T02:05:43.737Z,58.47
2023-04-15T02:08:10.322Z,63.00
2023-04-15T02:10:37.009Z,65.45
2023-04-15T02:13:04.457Z,56.08
2023-04-15T02:15:31.108Z,58.92
2023-04-15T02:17:59.344Z,53.28
2023-04-15T02:20:26.413Z,57.72
2023-04-15T02:22:53.070Z,60.30
2023-04-15T02:25:20.716Z,62.95
2023-04-15T02:27:47.308Z,54.50
2023-04-15T02:30:14.147Z,61.67
2023-04-15T02:32:41.529Z,62.45
2023-04-15T02:35:09.227Z,58.13
2023-04-15T02:37:40.861Z,67.25
2023-04-15T02:42:41.110Z,52.30
2023-04-15T02:45:08.568Z,57.42
2023-04-15T02:47:36.269Z,56.55
2023-04-15T02:50:04.292Z,58.60
2023-04-15T02:52:31.222Z,57.97
2023-04-15T02:55:00.747Z,67.38
2023-04-15T02:57:31.254Z,66.88
2023-04-15T02:59:57.900Z,57.53
2023-04-15T03:02:24.768Z,55.22
2023-04-15T03:04:51.845Z,77.35
2023-04-15T03:07:19.865Z,60.78
2023-04-15T03:09:47.833Z,72.40
2023-04-15T03:12:14.876Z,65.82
2023-04-15T03:14:41.715Z,61.08
2023-04-15T03:17:08.306Z,57.33
2023-04-15T03:19:34.939Z,58.40
2023-04-15T03:22:01.592Z,62.60
2023-04-15T03:24:29.748Z,54.95
2023-04-15T03:26:57.935Z,62.33
2023-04-15T03:29:24.592Z,69.93
2023-04-15T03:31:52.572Z,56.97
2023-04-15T03:34:19.523Z,61.53
2023-04-15T03:36:46.942Z,60.00
2023-04-15T03:39:13.737Z,58.72
2023-04-15T03:41:40.820Z,52.72
2023-04-15T03:44:07.382Z,49.50
2023-04-15T03:46:34.060Z,54.97
2023-04-15T03:49:00.938Z,61.42
2023-04-15T03:51:27.658Z,61.45
2023-04-15T03:53:54.514Z,53.72
2023-04-15T03:56:21.065Z,52.05
2023-04-15T03:58:47.674Z,57.85
2023-04-15T04:01:14.566Z,59.58
2023-04-15T04:03:41.512Z,52.92
2023-04-15T04:06:08.478Z,50.35
2023-04-15T04:08:35.094Z,51.03
2023-04-15T04:11:02.083Z,50.50
2023-04-15T04:13:28.926Z,47.80
2023-04-15T04:15:56.507Z,48.22
2023-04-15T04:18:23.416Z,52.85
2023-04-15T04:20:50.051Z,55.03
2023-04-15T04:23:16.699Z,50.55
2023-04-15T04:25:43.696Z,50.65
2023-04-15T04:28:10.344Z,48.50
2023-04-15T04:30:37.174Z,48.60
2023-04-15T04:33:03.958Z,51.78
2023-04-15T04:35:30.564Z,50.45
2023-04-15T04:37:57.386Z,46.40
2023-04-15T04:40:25.116Z,44.45
2023-04-15T04:42:51.627Z,45.90
2023-04-15T04:45:18.268Z,46.78
2023-04-15T04:47:44.895Z,42.83
2023-04-15T04:50:11.659Z,43.00
2023-04-15T04:52:38.653Z,48.25
2023-04-15T04:55:05.804Z,51.35
2023-04-15T04:57:32.530Z,52.28
2023-04-15T04:59:59.137Z,47.50
2023-04-15T05:02:27.334Z,47.35
2023-04-15T05:04:54.812Z,47.17
2023-04-15T05:07:21.446Z,42.30
2023-04-15T05:09:48.172Z,37.97
2023-04-15T05:12:15.529Z,48.53
2023-04-15T05:14:42.496Z,48.95
2023-04-15T05:17:09.154Z,45.97
2023-04-15T05:19:36.065Z,40.28
2023-04-15T05:22:03.024Z,42.65
2023-04-15T05:24:29.641Z,40.45
2023-04-15T05:26:57.203Z,46.78
2023-04-15T05:29:23.933Z,43.67
2023-04-15T05:31:51.041Z,39.88
2023-04-15T05:34:17.641Z,38.60
2023-04-15T05:36:44.271Z,39.28
2023-04-15T05:39:10.945Z,38.08
2023-04-15T05:41:38.217Z,40.72
2023-04-15T05:44:05.169Z,35.08
2023-04-15T05:46:31.918Z,32.60
2023-04-15T05:48:58.621Z,38.40
2023-04-15T05:51:25.965Z,34.10
2023-04-15T05:53:52.595Z,35.95
2023-04-15T05:56:20.441Z,32.80
2023-04-15T05:58:47.168Z,34.13
2023-04-15T06:01:13.866Z,31.95
2023-04-15T06:03:40.813Z,30.05
2023-04-15T06:06:11.120Z,30.63
2023-04-15T06:08:37.729Z,28.67
2023-04-15T06:11:04.453Z,27.88
2023-04-15T06:13:31.091Z,28.95
2023-04-15T06:15:57.932Z,26.65
2023-04-15T06:18:24.678Z,24.02
2023-04-15T06:20:51.812Z,22.80
2023-04-15T06:23:18.420Z,21.73
2023-04-15T06:25:45.088Z,17.80
2023-04-15T06:28:12.453Z,22.02
2023-04-15T06:30:39.196Z,21.27
2023-04-15T06:33:06.850Z,20.48
2023-04-15T06:35:34.004Z,19.23
2023-04-15T06:38:00.706Z,16.83
2023-04-15T06:40:27.876Z,17.58
2023-04-15T06:42:55.106Z,15.45
2023-04-15T06:45:21.603Z,17.77
2023-04-15T06:47:48.129Z,20.83
2023-04-15T06:50:14.784Z,22.13
2023-04-15T06:52:41.602Z,17.48
2023-04-15T06:55:08.833Z,16.58
2023-04-15T06:57:35.634Z,19.17
2023-04-15T07:00:06.023Z,21.67
2023-04-15T07:02:32.650Z,14.32
2023-04-15T07:04:59.313Z,14.73
2023-04-15T07:07:26.491Z,15.70
2023-04-15T07:09:53.910Z,15.05
2023-04-15T07:12:20.933Z,15.43
2023-04-15T07:14:47.711Z,18.80
2023-04-15T07:17:15.973Z,13.48
2023-04-15T07:19:42.633Z,15.60
2023-04-15T07:22:09.185Z,16.58
2023-04-15T07:24:36.407Z,15.35
2023-04-15T07:27:04.264Z,15.27
2023-04-15T07:29:32.184Z,16.75
2023-04-15T07:31:59.789Z,15.68
2023-04-15T07:34:27.016Z,17.17
2023-04-15T07:36:53.612Z,15.40
2023-04-15T07:39:20.194Z,18.33
2023-04-15T07:41:46.701Z,15.27
2023-04-15T07:44:13.236Z,15.00
2023-04-15T07:46:39.906Z,18.05
2023-04-15T07:49:07.758Z,16.90
2023-04-15T07:51:34.579Z,15.70
2023-04-15T07:54:01.439Z,15.85
2023-04-15T07:56:27.983Z,19.67
2023-04-15T07:58:54.672Z,17.05
2023-04-15T08:01:21.864Z,16.40
2023-04-15T08:03:48.902Z,17.35
2023-04-15T08:06:15.623Z,17.83
2023-04-15T08:08:43.208Z,17.70
2023-04-15T08:11:09.883Z,16.23
2023-04-15T08:13:36.428Z,15.75
2023-04-15T08:16:39.986Z,19.00
2023-04-15T08:19:09.610Z,17.52
2023-04-15T08:21:36.725Z,19.50
2023-04-15T08:24:04.122Z,17.20
2023-04-15T08:26:31.249Z,18.50
2023-04-15T08:29:00.252Z,16.50
2023-04-15T08:31:27.492Z,16.67
2023-04-15T08:33:55.436Z,17.88
2023-04-15T08:36:22.307Z,17.95
2023-04-15T08:38:48.918Z,15.60
2023-04-15T08:41:25.491Z,18.55
2023-04-15T08:44:02.156Z,17.90
2023-04-15T08:46:31.428Z,19.50
2023-04-15T08:48:58.986Z,19.50
2023-04-15T08:51:26.502Z,18.25
2023-04-15T08:53:53.277Z,16.83
2023-04-15T08:56:24.719Z,18.92
2023-04-15T08:58:51.448Z,18.98
2023-04-15T09:01:18.510Z,17.20
2023-04-15T09:03:47.770Z,18.13
2023-04-15T09:06:17.519Z,16.73
2023-04-15T09:08:46.712Z,17.40
2023-04-15T09:11:19.374Z,18.48
2023-04-15T09:13:46.994Z,15.40
2023-04-15T09:16:13.895Z,18.20
2023-04-15T09:18:40.391Z,19.30
2023-04-15T09:21:09.452Z,16.88
2023-04-15T09:23:36.290Z,17.20
2023-04-15T09:26:03.900Z,18.17
2023-04-15T09:28:31.178Z,17.17
2023-04-15T09:31:02.229Z,17.45
2023-04-15T09:33:30.517Z,16.85
2023-04-15T09:35:58.740Z,17.30
2023-04-15T09:38:26.721Z,17.25
2023-04-15T09:40:56.121Z,16.25
2023-04-15T09:43:23.031Z,18.83
2023-04-15T09:45:52.500Z,16.98
2023-04-15T09:48:27.327Z,16.70
2023-04-15T09:50:55.039Z,17.77
2023-04-15T09:53:23.653Z,17.38
2023-04-15T09:55:58.252Z,17.17
2023-04-15T09:58:31.617Z,18.60
2023-04-15T10:01:01.950Z,20.58
2023-04-15T10:03:31.236Z,16.90
2023-04-15T10:06:00.235Z,16.55
2023-04-15T10:08:32.993Z,17.27
2023-04-15T10:11:03.046Z,18.98
2023-04-15T10:13:35.146Z,19.55
2023-04-15T10:16:16.486Z,18.38
2023-04-15T10:18:46.576Z,20.92
2023-04-15T10:21:16.432Z,18.85
2023-04-15T10:23:47.967Z,19.20
2023-04-15T10:28:42.188Z,17.70
2023-04-15T10:31:10.253Z,16.67
2023-04-15T10:33:38.001Z,17.50
2023-04-15T10:36:06.552Z,19.65
2023-04-15T10:38:42.138Z,18.08
2023-04-15T10:41:21.838Z,22.25
2023-04-15T10:44:02.609Z,19.20
2023-04-15T10:46:38.062Z,20.85
2023-04-15T10:49:15.682Z,21.63
2023-04-15T10:52:03.207Z,19.90
2023-04-15T10:54:30.035Z,18.10
2023-04-15T10:57:06.236Z,18.45
2023-04-15T10:59:36.463Z,20.45
2023-04-15T11:02:06.040Z,17.13
2023-04-15T11:05:00.357Z,16.83
2023-04-15T11:07:46.779Z,18.50
2023-04-15T11:10:26.278Z,18.30
2023-04-15T11:12:55.113Z,18.70
2023-04-15T11:15:41.148Z,20.25
2023-04-15T11:18:23.258Z,18.95
2023-04-15T11:20:59.971Z,16.63
2023-04-15T11:23:37.969Z,19.45
2023-04-15T11:26:09.370Z,18.70
2023-04-15T11:28:38.761Z,18.13
2023-04-15T11:31:18.361Z,21.25
2023-04-15T11:33:55.939Z,20.17
2023-04-15T11:36:26.539Z,17.55
2023-04-15T11:38:53.357Z,18.00
2023-04-15T11:41:23.715Z,17.67
2023-04-15T11:43:53.629Z,15.85
2023-04-15T11:46:22.011Z,17.48
2023-04-15T11:48:48.666Z,19.98
2023-04-15T11:51:15.609Z,17.45
2023-04-15T11:53:46.425Z,16.73
2023-04-15T11:56:21.207Z,18.70
2023-04-15T11:58:51.513Z,17.75
2023-04-15T12:01:19.247Z,16.77
2023-04-15T12:04:03.120Z,16.17
2023-04-15T12:06:37.477Z,16.08
2023-04-15T12:09:07.045Z,14.25
2023-04-15T12:11:41.002Z,16.00
2023-04-15T12:14:13.691Z,17.33
2023-04-15T12:16:47.936Z,16.92
2023-04-15T12:19:37.816Z,16.42
2023-04-15T12:22:06.745Z,15.55
2023-04-15T12:24:35.015Z,16.13
2023-04-15T12:27:09.822Z,18.10
2023-04-15T12:29:38.621Z,16.13
2023-04-15T12:32:05.388Z,17.63
2023-04-15T12:34:34.680Z,15.48
2023-04-15T12:37:03.284Z,18.42
2023-04-15T12:39:36.690Z,15.52
2023-04-15T12:42:04.547Z,16.75
2023-04-15T12:44:31.808Z,15.80
2023-04-15T12:46:58.675Z,19.20
2023-04-15T12:49:27.068Z,15.60
2023-04-15T12:51:55.427Z,15.93
2023-04-15T12:54:22.467Z,17.00
2023-04-15T12:56:50.668Z,17.63
2023-04-15T12:59:21.353Z,16.60
2023-04-15T13:01:49.068Z,17.40
2023-04-15T13:04:16.748Z,15.70
2023-04-15T13:06:43.580Z,18.08
2023-04-15T13:09:10.468Z,17.60
2023-04-15T13:11:37.200Z,17.50
2023-04-15T13:14:05.607Z,20.25
2023-04-15T13:16:33.197Z,17.52
2023-04-15T13:19:01.093Z,17.75
2023-04-15T13:21:27.777Z,17.05
2023-04-15T13:23:54.630Z,17.83
2023-04-15T13:26:21.539Z,17.85
2023-04-15T13:28:48.287Z,15.85
2023-04-15T13:31:14.880Z,17.83
2023-04-15T13:33:41.695Z,17.20
2023-04-15T13:36:09.076Z,18.65
2023-04-15T13:38:36.348Z,16.58
2023-04-15T13:41:03.124Z,19.08
2023-04-15T13:43:29.617Z,17.75
2023-04-15T13:45:56.520Z,17.27
2023-04-15T13:48:23.183Z,16.95
2023-04-15T13:50:50.468Z,18.63
2023-04-15T13:53:17.086Z,17.65
2023-04-15T13:55:43.825Z,16.67
2023-04-15T13:58:11.224Z,17.25
2023-04-15T14:00:37.841Z,16.58
2023-04-15T14:03:05.156Z,15.48
2023-04-15T14:05:32.957Z,16.65
2023-04-15T14:08:00.241Z,16.58
2023-04-15T14:10:26.812Z,18.42
2023-04-15T14:12:53.364Z,17.05
2023-04-15T14:15:19.992Z,17.00
2023-04-15T14:17:46.604Z,17.50
2023-04-15T14:20:14.516Z,16.80
2023-04-15T14:22:43.052Z,16.63
2023-04-15T14:25:13.171Z,17.92
2023-04-15T14:27:43.985Z,16.27
2023-04-15T14:30:11.724Z,17.13
2023-04-15T14:32:38.297Z,17.65
2023-04-15T14:35:05.965Z,17.75
2023-04-15T14:37:32.982Z,18.20
2023-04-15T14:39:59.549Z,19.50
2023-04-15T14:42:26.105Z,18.63
2023-04-15T14:44:52.997Z,18.40
2023-04-15T14:47:19.820Z,18.73
2023-04-15T14:49:46.502Z,18.42
2023-04-15T14:52:13.824Z,17.77
2023-04-15T14:54:40.970Z,19.88
2023-04-15T14:57:08.849Z,19.10
2023-04-15T14:59:35.585Z,19.15
2023-04-15T15:02:02.335Z,20.15
2023-04-15T15:04:29.414Z,19.67
2023-04-15T15:06:56.529Z,18.05
2023-04-15T15:09:23.944Z,18.95
2023-04-15T15:11:51.009Z,21.45
2023-04-15T15:14:17.600Z,18.27
2023-04-15T15:16:44.322Z,16.58
2023-04-15T15:19:11.096Z,20.90
2023-04-15T15:21:37.772Z,17.52
2023-04-15T15:24:04.637Z,18.75
2023-04-15T15:26:31.447Z,16.77
2023-04-15T15:28:58.395Z,18.35
2023-04-15T15:31:24.966Z,19.00
2023-04-15T15:33:52.990Z,17.75
2023-04-15T15:36:19.939Z,17.65
2023-04-15T15:38:46.583Z,20.00
2023-04-15T15:41:13.153Z,18.23
2023-04-15T15:43:40.028Z,20.98
2023-04-15T15:46:06.519Z,16.55
2023-04-15T15:48:33.081Z,16.80
2023-04-15T15:50:59.672Z,18.05
2023-04-15T15:53:26.424Z,16.15
2023-04-15T15:55:54.064Z,15.15
2023-04-15T15:58:20.776Z,17.02
2023-04-15T16:00:47.474Z,17.15
2023-04-15T16:03:14.148Z,16.55
2023-04-15T16:05:40.776Z,17.92
2023-04-15T16:08:07.465Z,16.00
2023-04-15T16:10:34.096Z,14.80
2023-04-15T16:13:00.768Z,15.98
2023-04-15T16:15:28.869Z,16.08
2023-04-15T16:17:55.799Z,14.10
2023-04-15T16:20:22.402Z,16.38
2023-04-15T16:22:48.884Z,15.68
2023-04-15T16:25:15.475Z,19.05
2023-04-15T16:27:57.235Z,14.70
2023-04-15T16:30:26.083Z,14.77
2023-04-15T16:32:52.763Z,14.80
2023-04-15T16:35:20.235Z,16.27
2023-04-15T16:37:47.154Z,15.60
2023-04-15T16:40:13.743Z,16.80
2023-04-15T16:42:43.997Z,15.57
2023-04-15T16:45:11.267Z,14.00
2023-04-15T16:47:38.109Z,14.13
2023-04-15T16:52:38.753Z,14.60
2023-04-15T16:55:05.354Z,14.18
2023-04-15T16:57:50.662Z,13.98
2023-04-15T17:00:18.672Z,15.68
2023-04-15T17:02:45.785Z,13.85
2023-04-15T17:05:12.354Z,14.57
2023-04-15T17:07:38.952Z,13.30
2023-04-15T17:10:08.746Z,13.82
2023-04-15T17:12:35.341Z,16.33
2023-04-15T17:15:01.883Z,14.57
2023-04-15T17:17:28.458Z,15.77
2023-04-15T17:19:55.291Z,15.10
2023-04-15T17:22:25.104Z,14.23
2023-04-15T17:24:51.887Z,13.57
2023-04-15T17:27:18.348Z,14.45
2023-04-15T17:29:44.899Z,14.48
2023-04-15T17:32:13.611Z,16.10
2023-04-15T17:34:49.667Z,14.25
2023-04-15T17:37:17.333Z,16.35
2023-04-15T17:39:43.870Z,15.10
2023-04-15T17:42:13.773Z,16.73
2023-04-15T17:44:40.283Z,16.90
2023-04-15T17:47:07.353Z,18.10
2023-04-15T17:49:34.312Z,16.70
2023-04-15T17:52:04.710Z,19.08
2023-04-15T17:54:31.330Z,18.38
2023-04-15T17:56:58.060Z,19.27
2023-04-15T17:59:24.511Z,16.75
2023-04-15T18:01:51.148Z,19.73
2023-04-15T18:04:17.734Z,20.83
2023-04-15T18:06:44.323Z,19.17
2023-04-15T18:09:11.300Z,20.58
2023-04-15T18:11:43.970Z,19.75
2023-04-15T18:14:11.304Z,23.35
2023-04-15T18:16:40.182Z,20.00
2023-04-15T18:19:06.940Z,19.65
2023-04-15T18:21:33.459Z,19.42
2023-04-15T18:23:59.904Z,21.92
2023-04-15T18:26:27.629Z,21.05
2023-04-15T18:28:55.168Z,19.42
2023-04-15T18:31:21.681Z,18.67
2023-04-15T18:33:48.521Z,19.13
2023-04-15T18:36:15.042Z,20.42
2023-04-15T18:38:41.680Z,20.35
2023-04-15T18:41:09.996Z,20.02
2023-04-15T18:43:36.624Z,22.08
2023-04-15T18:46:03.999Z,20.00
2023-04-15T18:48:30.957Z,22.23
2023-04-15T18:50:58.612Z,19.27
2023-04-15T18:53:25.066Z,21.10
2023-04-15T18:55:51.774Z,22.15
2023-04-15T18:58:23.993Z,19.65
2023-04-15T19:00:50.490Z,25.73
2023-04-15T19:03:17.118Z,20.90
2023-04-15T19:05:43.944Z,21.88
2023-04-15T19:08:10.808Z,23.45
2023-04-15T19:10:38.151Z,24.17
2023-04-15T19:13:12.062Z,24.40
2023-04-15T19:15:38.552Z,27.08
2023-04-15T19:18:10.480Z,26.80
2023-04-15T19:20:40.392Z,27.45
2023-04-15T19:23:07.125Z,26.50
2023-04-15T19:25:33.660Z,24.63
2023-04-15T19:28:00.307Z,27.85
2023-04-15T19:30:26.774Z,26.75
2023-04-15T19:32:53.380Z,23.45
2023-04-15T19:35:20.778Z,24.48
2023-04-15T19:37:47.806Z,25.15
2023-04-15T19:40:14.460Z,24.65
2023-04-15T19:42:41.242Z,25.35
2023-04-15T19:45:08.154Z,27.35
2023-04-15T19:47:34.932Z,25.52
2023-04-15T19:50:01.627Z,26.52
2023-04-15T19:52:28.149Z,29.00
2023-04-15T19:54:54.651Z,25.92
2023-04-15T19:57:21.201Z,23.85
2023-04-15T19:59:47.917Z,25.52
2023-04-15T20:02:14.555Z,24.50
2023-04-15T20:04:41.352Z,25.17
2023-04-15T20:07:08.301Z,24.55
2023-04-15T20:09:35.193Z,25.10
2023-04-15T20:12:48.058Z,26.65
2023-04-15T20:14:48.208Z,25.13
2023-04-15T20:17:16.496Z,25.77
2023-04-15T20:19:43.140Z,25.48
2023-04-15T20:22:09.788Z,26.63
2023-04-15T20:24:36.351Z,26.27
2023-04-15T20:27:03.853Z,24.40
2023-04-15T20:29:30.466Z,26.88
2023-04-15T20:31:57.762Z,27.15
2023-04-15T20:34:24.497Z,26.67
2023-04-15T20:36:51.279Z,25.25
2023-04-15T20:39:17.762Z,30.23
2023-04-15T20:41:46.296Z,27.25
2023-04-15T20:44:12.810Z,26.27
2023-04-15T20:46:39.307Z,25.75
2023-04-15T20:49:06.096Z,24.52
2023-04-15T20:51:37.878Z,28.10
2023-04-15T20:56:31.743Z,24.50
2023-04-15T20:58:59.060Z,28.92
2023-04-15T21:01:26.053Z,25.80
2023-04-15T21:03:52.647Z,26.75
2023-04-15T21:06:19.195Z,25.95
2023-04-15T21:08:45.828Z,29.23
2023-04-15T21:11:14.853Z,25.80
2023-04-15T21:13:56.984Z,26.35
2023-04-15T21:16:23.746Z,26.88
2023-04-15T21:18:50.983Z,26.67
2023-04-15T21:21:17.647Z,25.77
2023-04-15T21:23:44.273Z,27.80
2023-04-15T21:26:11.054Z,29.05
2023-04-15T21:28:39.201Z,26.45
2023-04-15T21:31:06.647Z,29.58
2023-04-15T21:33:33.498Z,29.45
2023-04-15T21:36:00.144Z,27.60
2023-04-15T21:38:26.791Z,26.23
2023-04-15T21:40:53.545Z,28.95
2023-04-15T21:43:24.194Z,27.42
2023-04-15T21:46:20.872Z,29.42
2023-04-15T21:48:37.456Z,26.95
2023-04-15T21:51:04.314Z,27.27
2023-04-15T21:53:31.252Z,30.80
2023-04-15T21:55:58.246Z,31.27
2023-04-15T21:58:24.820Z,26.25
2023-04-15T22:00:57.257Z,31.42
2023-04-15T22:03:24.428Z,28.38
2023-04-15T22:05:51.236Z,33.05
2023-04-15T22:08:17.798Z,30.70
2023-04-15T22:10:44.416Z,29.50
2023-04-15T22:13:18.545Z,31.42
2023-04-15T22:15:48.959Z,34.70
2023-04-15T22:18:16.156Z,32.22
2023-04-15T22:20:45.995Z,31.88
2023-04-15T22:23:12.541Z,34.97
2023-04-15T22:25:39.259Z,36.75
2023-04-15T22:28:08.759Z,29.30
2023-04-15T22:30:39.604Z,34.47
2023-04-15T22:33:06.914Z,33.88
2023-04-15T22:35:34.436Z,34.55
2023-04-15T22:38:01.406Z,37.25
2023-04-15T22:40:28.736Z,35.00
2023-04-15T22:42:56.257Z,34.83
2023-04-15T22:45:22.964Z,32.25
2023-04-15T22:47:49.515Z,31.85
2023-04-15T22:50:16.158Z,36.05
2023-04-15T22:52:46.041Z,33.05
2023-04-15T22:55:12.796Z,35.05
2023-04-15T22:57:39.407Z,34.10
2023-04-15T23:00:07.351Z,33.33
2023-04-15T23:02:34.745Z,33.10
2023-04-15T23:05:04.180Z,33.45
2023-04-15T23:07:39.361Z,33.35
2023-04-15T23:10:07.043Z,34.72
2023-04-15T23:12:33.553Z,36.73
2023-04-15T23:15:00.160Z,34.65
2023-04-15T23:17:27.113Z,38.70
2023-04-15T23:19:53.679Z,36.97
2023-04-15T23:22:20.168Z,34.78
2023-04-15T23:24:46.648Z,35.20
2023-04-15T23:27:13.119Z,33.00
2023-04-15T23:29:39.674Z,32.47
2023-04-15T23:32:06.670Z,32.90
2023-04-15T23:34:33.224Z,32.72
2023-04-15T23:36:59.779Z,36.05
2023-04-15T23:39:26.470Z,32.90
2023-04-15T23:41:53.447Z,38.38
2023-04-15T23:44:20.386Z,34.40
2023-04-15T23:46:47.139Z,32.08
2023-04-15T23:49:13.658Z,34.20
2023-04-15T23:51:40.254Z,32.80
2023-04-15T23:54:06.828Z,29.85
2023-04-15T23:56:33.460Z,30.95
2023-04-15T23:58:59.919Z,35.30
